Time;durP1;ratioP1;P1;durP2;ratioP2;P2;SDS_P1;SDS_P2;PMS_P1;PMS_P2;Temp;Humidity;BMP_temperature;BMP_pressure;BME280_temperature;BME280_humidity;BME280_pressure;Samples;Min_cycle;Max_cycle;Signal;HPM_P1;HPM_P2
2023/10/15 00:01:52;;;;;;;5.77;1.60;;;7.80;99.90;;;;;;5073644;28;20067;-53
2023/10/15 00:04:17;;;;;;;5.93;1.80;;;7.80;99.90;;;;;;5073338;28;20547;-50
2023/10/15 00:06:43;;;;;;;3.70;1.77;;;7.80;99.90;;;;;;5073192;28;20318;-54
2023/10/15 00:09:09;;;;;;;6.40;1.43;;;7.80;99.90;;;;;;5073086;28;20020;-52
2023/10/15 00:11:35;;;;;;;5.53;1.53;;;7.90;99.90;;;;;;5073230;28;20392;-51
2023/10/15 00:14:04;;;;;;;6.83;1.60;;;7.90;99.90;;;;;;5072736;28;20485;-54
2023/10/15 00:16:30;;;;;;;3.17;1.37;;;7.90;99.90;;;;;;5073080;28;20503;-55
2023/10/15 00:18:55;;;;;;;4.53;1.47;;;7.90;99.90;;;;;;5073149;28;20121;-50
2023/10/15 00:21:21;;;;;;;4.63;1.40;;;7.80;99.90;;;;;;5073324;28;20085;-55
2023/10/15 00:23:47;;;;;;;5.87;1.27;;;7.80;99.90;;;;;;5072757;28;20036;-53
2023/10/15 00:26:14;;;;;;;4.30;1.37;;;7.80;99.90;;;;;;5073112;28;20036;-54
2023/10/15 00:28:47;;;;;;;5.47;1.40;;;7.80;99.90;;;;;;5072665;28;20032;-53
2023/10/15 00:31:16;;;;;;;6.20;1.73;;;7.80;99.90;;;;;;5054778;28;20036;-53
2023/10/15 00:33:42;;;;;;;4.63;1.55;;;7.80;99.90;;;;;;5054497;28;20037;-53
2023/10/15 00:36:18;;;;;;;6.60;1.50;;;7.90;99.90;;;;;;5055186;28;20153;-51
2023/10/15 00:38:45;;;;;;;4.97;1.60;;;7.80;99.90;;;;;;5054719;28;20024;-54
2023/10/15 00:41:13;;;;;;;5.97;1.40;;;7.80;99.90;;;;;;5055076;28;20028;-52
2023/10/15 00:43:50;;;;;;;5.68;1.75;;;7.80;99.90;;;;;;5055105;28;20509;-50
2023/10/15 00:46:18;;;;;;;7.23;1.60;;;7.70;99.90;;;;;;5038191;28;20035;-50
2023/10/15 00:48:45;;;;;;;4.30;1.67;;;7.70;99.90;;;;;;5054696;28;20028;-54
2023/10/15 00:51:13;;;;;;;6.77;1.87;;;7.70;99.90;;;;;;5055096;28;20032;-54
2023/10/15 00:53:54;;;;;;;5.57;1.40;;;7.70;99.90;;;;;;5072846;28;20036;-50
2023/10/15 00:56:26;;;;;;;6.77;1.37;;;7.70;99.90;;;;;;5072711;28;20378;-53
2023/10/15 01:03:55;;;;;;;4.57;1.50;;;7.70;99.90;;;;;;5054772;28;20457;-52
2023/10/15 01:06:44;;;;;;;5.60;1.97;;;7.70;99.90;;;;;;5072697;28;20068;-53
2023/10/15 01:09:27;;;;;;;7.43;2.30;;;7.60;99.90;;;;;;5072058;28;20047;-54
2023/10/15 01:11:57;;;;;;;3.23;1.10;;;7.60;99.90;;;;;;5073007;28;20045;-52
2023/10/15 01:14:31;;;;;;;4.30;1.67;;;7.60;99.90;;;;;;5054807;28;20029;-51
2023/10/15 01:16:57;;;;;;;6.47;1.67;;;7.70;99.90;;;;;;5054912;28;20469;-54
2023/10/15 01:19:34;;;;;;;6.27;1.37;;;7.60;99.90;;;;;;5072292;28;20074;-54
2023/10/15 01:22:02;;;;;;;7.90;1.60;;;7.60;99.90;;;;;;5073087;28;20445;-53
2023/10/15 01:24:33;;;;;;;3.88;1.23;;;7.50;99.90;;;;;;5055098;28;20035;-54
2023/10/15 01:27:03;;;;;;;8.37;1.87;;;7.50;99.90;;;;;;5054669;28;20039;-55
2023/10/15 01:29:33;;;;;;;7.07;1.50;;;7.50;99.90;;;;;;5054481;28;20039;-52
2023/10/15 01:32:03;;;;;;;4.27;1.50;;;7.50;99.90;;;;;;5054322;28;20024;-52
2023/10/15 01:34:37;;;;;;;6.47;1.30;;;7.50;99.90;;;;;;5072432;28;20032;-54
2023/10/15 01:39:52;;;;;;;5.43;2.97;;;7.40;99.90;;;;;;5072719;28;20025;-55
2023/10/15 01:44:58;;;;;;;7.33;3.60;;;7.50;99.90;;;;;;5076494;28;20107;-53
2023/10/15 01:47:28;;;;;;;6.80;3.33;;;7.50;99.90;;;;;;5058850;28;20047;-51
2023/10/15 01:49:56;;;;;;;8.17;3.83;;;7.70;99.90;;;;;;5058668;28;20454;-50
2023/10/15 01:52:32;;;;;;;10.65;2.90;;;7.80;99.90;;;;;;5057926;28;20060;-54
2023/10/15 01:55:04;;;;;;;8.40;3.30;;;7.80;99.90;;;;;;5075795;28;20032;-54
2023/10/15 01:57:29;;;;;;;6.87;2.67;;;7.80;99.90;;;;;;5058058;28;20514;-54
2023/10/15 02:00:33;;;;;;;6.20;2.50;;;7.90;99.90;;;;;;5057942;28;20107;-53
2023/10/15 02:02:48;;;;;;;5.87;2.57;;;7.90;99.90;;;;;;5075156;28;20055;-52
2023/10/15 02:05:29;;;;;;;4.10;2.67;;;8.00;99.90;;;;;;5057763;28;20040;-52
2023/10/15 02:07:56;;;;;;;9.73;2.70;;;8.00;99.90;;;;;;5058043;28;20055;-49
2023/10/15 02:10:22;;;;;;;7.40;3.00;;;8.00;99.90;;;;;;5075733;28;20048;-52
2023/10/15 02:12:59;;;;;;;5.57;3.37;;;8.10;99.90;;;;;;5057579;28;20481;-49
2023/10/15 02:15:25;;;;;;;6.67;3.80;;;8.10;99.90;;;;;;5075934;28;20137;-51
2023/10/15 02:17:54;;;;;;;6.23;3.23;;;8.10;99.90;;;;;;5075231;28;20028;-51
2023/10/15 02:23:05;;;;;;;7.53;3.30;;;8.20;99.90;;;;;;5057597;28;20040;-54
2023/10/15 02:25:35;;;;;;;6.80;4.17;;;8.20;99.90;;;;;;5075250;28;20052;-52
2023/10/15 02:28:01;;;;;;;8.53;3.63;;;8.20;99.90;;;;;;5057813;28;20478;-52
2023/10/15 02:30:26;;;;;;;6.00;3.30;;;8.20;99.90;;;;;;5057404;28;20074;-53
2023/10/15 02:32:53;;;;;;;8.20;4.50;;;8.20;99.90;;;;;;5074959;28;20064;-52
2023/10/15 02:35:24;;;;;;;7.10;3.50;;;8.20;99.90;;;;;;5057328;28;20032;-54
2023/10/15 02:37:49;;;;;;;7.67;4.20;;;8.20;99.90;;;;;;5075373;28;20024;-55
2023/10/15 02:40:18;;;;;;;5.63;3.37;;;8.30;99.90;;;;;;5056833;28;20037;-50
2023/10/15 02:42:52;;;;;;;7.83;3.80;;;8.30;99.90;;;;;;5074820;28;20043;-54
2023/10/15 02:45:21;;;;;;;6.23;3.50;;;8.30;99.90;;;;;;5056986;28;20033;-54
2023/10/15 02:47:54;;;;;;;8.43;3.17;;;8.30;99.90;;;;;;5074919;28;20036;-53
2023/10/15 02:50:26;;;;;;;10.13;3.50;;;8.30;99.90;;;;;;5056821;28;20481;-54
2023/10/15 02:52:54;;;;;;;8.57;4.00;;;8.30;99.90;;;;;;5074518;28;20033;-52
2023/10/15 02:55:26;;;;;;;5.97;3.72;;;8.20;99.90;;;;;;5056011;28;20043;-54
2023/10/15 02:57:52;;;;;;;9.13;4.03;;;8.20;99.90;;;;;;5056972;28;20032;-51
2023/10/15 03:00:32;;;;;;;7.03;3.43;;;8.20;99.90;;;;;;5074756;28;20036;-51
2023/10/15 03:03:08;;;;;;;7.07;3.60;;;8.20;99.90;;;;;;5056299;28;20035;-55
2023/10/15 03:05:39;;;;;;;11.20;3.50;;;8.20;99.90;;;;;;5056575;28;20086;-53
2023/10/15 03:08:05;;;;;;;7.03;2.73;;;8.20;99.90;;;;;;5074562;28;20511;-55
2023/10/15 03:10:46;;;;;;;6.27;2.77;;;8.20;99.90;;;;;;5056273;28;20037;-50
2023/10/15 03:13:15;;;;;;;6.17;2.93;;;8.20;99.90;;;;;;5056794;28;20028;-54
2023/10/15 03:15:48;;;;;;;;;;;8.10;99.90;;;;;;5074865;28;20035;-54
2023/10/15 03:18:15;;;;;;;5.80;2.90;;;8.10;99.90;;;;;;5074051;28;20335;-50
2023/10/15 03:20:48;;;;;;;4.90;2.80;;;8.20;99.90;;;;;;5055800;28;20043;-50
2023/10/15 03:23:16;;;;;;;7.30;2.30;;;8.10;99.90;;;;;;5056263;28;20044;-52
2023/10/15 03:25:42;;;;;;;6.90;1.90;;;8.10;99.90;;;;;;5056185;28;20024;-55
2023/10/15 03:28:11;;;;;;;6.27;1.57;;;8.00;99.90;;;;;;5056442;28;20587;-54
2023/10/15 03:30:44;;;;;;;;;;;8.00;99.90;;;;;;5056396;28;20580;-53
2023/10/15 03:33:13;;;;;;;2.53;1.43;;;8.00;99.90;;;;;;5073967;28;19912;-50
2023/10/15 03:35:39;;;;;;;2.65;1.77;;;8.10;99.90;;;;;;5056659;28;20032;-53
2023/10/15 03:38:23;;;;;;;4.27;2.10;;;8.00;99.90;;;;;;5074190;28;20017;-53
2023/10/15 03:40:50;;;;;;;;;;;7.90;99.90;;;;;;5075349;28;20033;-53
2023/10/15 03:43:20;;;;;;;6.40;1.43;;;7.80;99.90;;;;;;5056154;28;19915;-50
2023/10/15 03:45:53;;;;;;;3.83;1.53;;;7.80;99.90;;;;;;5074578;28;20028;-52
2023/10/15 03:48:29;;;;;;;3.17;1.40;;;7.80;99.90;;;;;;5074250;28;20382;-54
2023/10/15 03:50:58;;;;;;;3.43;1.40;;;7.70;99.90;;;;;;5074200;28;20120;-55
2023/10/15 03:53:28;;;;;;;4.15;1.73;;;7.70;99.90;;;;;;5074346;28;20568;-50
2023/10/15 03:56:01;;;;;;;3.20;1.60;;;7.70;99.90;;;;;;5074990;28;20020;-54
2023/10/15 03:58:27;;;;;;;4.23;1.73;;;7.60;99.90;;;;;;5074431;28;20039;-53
2023/10/15 04:03:35;;;;;;;2.90;1.73;;;7.50;99.90;;;;;;5073787;28;20405;-55
2023/10/15 04:06:05;;;;;;;7.88;2.10;;;7.50;99.90;;;;;;5056050;28;20033;-52
2023/10/15 04:08:33;;;;;;;4.17;1.67;;;7.50;99.90;;;;;;5073586;28;20036;-52
2023/10/15 04:11:00;;;;;;;4.13;1.90;;;7.50;99.90;;;;;;5073979;28;20032;-53
2023/10/15 04:13:26;;;;;;;2.67;1.70;;;7.50;99.90;;;;;;5073656;28;20047;-52
2023/10/15 04:15:55;;;;;;;4.10;1.83;;;7.50;99.90;;;;;;5073840;28;20438;-55
2023/10/15 04:18:25;;;;;;;6.30;2.45;;;7.50;99.90;;;;;;5073641;28;20032;-52
2023/10/15 04:20:52;;;;;;;4.43;2.05;;;7.50;99.90;;;;;;5073150;28;20040;-55
2023/10/15 04:23:36;;;;;;;3.10;1.60;;;7.50;99.90;;;;;;5073452;28;20059;-52
2023/10/15 04:26:12;;;;;;;3.23;1.60;;;7.60;99.90;;;;;;5073522;28;20039;-54
2023/10/15 04:28:38;;;;;;;2.47;1.53;;;7.60;99.90;;;;;;5055616;28;20097;-52
2023/10/15 04:31:12;;;;;;;4.53;1.80;;;7.70;99.90;;;;;;5073966;28;20035;-53
2023/10/15 04:33:41;;;;;;;3.77;1.57;;;7.70;99.90;;;;;;5073576;28;20354;-55
2023/10/15 04:36:10;;;;;;;3.67;2.22;;;7.70;99.90;;;;;;5073597;28;20039;-54
2023/10/15 04:38:38;;;;;;;5.40;1.92;;;7.70;99.90;;;;;;5073490;28;20028;-55
2023/10/15 04:41:04;;;;;;;3.87;1.50;;;7.70;99.90;;;;;;5073701;28;20029;-53
2023/10/15 04:43:40;;;;;;;2.77;1.63;;;7.70;99.90;;;;;;5055488;28;20050;-55
2023/10/15 04:46:17;;;;;;;4.33;2.03;;;7.70;99.90;;;;;;5073274;28;20024;-51
2023/10/15 04:48:45;;;;;;;3.87;1.73;;;7.60;99.90;;;;;;5073063;28;20064;-55
2023/10/15 04:51:13;;;;;;;2.57;1.40;;;7.50;99.90;;;;;;5073608;28;20468;-53
2023/10/15 04:53:48;;;;;;;6.22;2.50;;;7.50;99.90;;;;;;5055047;28;20077;-52
2023/10/15 04:56:14;;;;;;;4.33;1.90;;;7.40;99.90;;;;;;5073442;28;20020;-53
2023/10/15 04:58:40;;;;;;;4.53;1.67;;;7.40;99.90;;;;;;5072927;28;20120;-53
2023/10/15 05:01:07;;;;;;;2.47;1.20;;;7.40;99.90;;;;;;5073461;28;20060;-52
2023/10/15 05:03:34;;;;;;;3.30;1.27;;;7.40;99.90;;;;;;5072870;28;20032;-54
2023/10/15 05:06:01;;;;;;;2.70;1.13;;;7.40;99.90;;;;;;5055078;28;20032;-52
2023/10/15 05:08:27;;;;;;;2.33;1.30;;;7.30;99.90;;;;;;5072418;28;20036;-54
2023/10/15 05:10:53;;;;;;;3.87;1.10;;;7.30;99.90;;;;;;5072783;28;20039;-55
2023/10/15 05:13:19;;;;;;;4.23;1.20;;;7.30;99.90;;;;;;5072558;28;20051;-55
2023/10/15 05:15:46;;;;;;;3.03;0.77;;;7.30;99.90;;;;;;5073347;28;20365;-53
2023/10/15 05:18:14;;;;;;;2.13;0.97;;;7.30;99.90;;;;;;5074840;28;20047;-54
2023/10/15 05:20:43;;;;;;;2.83;1.20;;;7.40;99.90;;;;;;5076924;28;20033;-54
2023/10/15 05:23:09;;;;;;;2.10;0.57;;;7.40;99.90;;;;;;5076488;28;20039;-54
2023/10/15 05:25:35;;;;;;;6.17;0.80;;;7.40;99.90;;;;;;5076244;28;20029;-55
2023/10/15 05:28:00;;;;;;;1.37;0.70;;;7.40;99.90;;;;;;5076652;28;20055;-55
2023/10/15 05:30:26;;;;;;;1.17;0.60;;;7.40;99.90;;;;;;5076541;28;20117;-55
2023/10/15 05:32:52;;;;;;;2.23;0.40;;;7.30;99.90;;;;;;5076119;28;20392;-53
2023/10/15 05:35:18;;;;;;;1.50;0.50;;;7.40;99.90;;;;;;5058259;28;20043;-54
2023/10/15 05:37:45;;;;;;;1.17;0.43;;;7.40;99.90;;;;;;5076170;28;20024;-55
2023/10/15 05:40:15;;;;;;;2.20;0.50;;;7.40;99.90;;;;;;5076128;28;20037;-53
2023/10/15 05:42:41;;;;;;;0.90;0.53;;;7.30;99.90;;;;;;5076074;28;20033;-54
2023/10/15 05:45:07;;;;;;;1.40;0.30;;;7.30;99.90;;;;;;5076001;28;20507;-53
2023/10/15 05:47:34;;;;;;;1.90;0.50;;;7.30;99.90;;;;;;5075791;28;20024;-52
2023/10/15 05:50:00;;;;;;;2.83;0.60;;;7.30;99.90;;;;;;5076001;28;20120;-55
2023/10/15 05:52:25;;;;;;;1.20;0.63;;;7.30;99.90;;;;;;5057885;28;20124;-53
2023/10/15 05:54:53;;;;;;;1.17;0.40;;;7.30;99.90;;;;;;5075758;28;20032;-53
2023/10/15 05:57:22;;;;;;;1.33;0.50;;;7.30;99.90;;;;;;5076018;28;20037;-54
2023/10/15 05:59:49;;;;;;;1.60;0.60;;;7.30;99.90;;;;;;5075648;28;20064;-54
2023/10/15 06:02:14;;;;;;;0.80;0.50;;;7.30;99.90;;;;;;5075929;28;20051;-52
2023/10/15 06:04:42;;;;;;;0.90;0.40;;;7.30;99.90;;;;;;5075825;28;20538;-53
2023/10/15 06:07:08;;;;;;;2.03;0.50;;;7.30;99.90;;;;;;5075642;28;20067;-54
2023/10/15 06:09:34;;;;;;;0.40;0.40;;;7.30;99.90;;;;;;5058024;28;20195;-54
2023/10/15 06:12:00;;;;;;;0.57;0.33;;;7.30;99.90;;;;;;5076035;28;20163;-55
2023/10/15 06:14:28;;;;;;;1.20;0.43;;;7.40;99.90;;;;;;5076125;28;20032;-53
2023/10/15 06:16:56;;;;;;;2.40;0.60;;;7.40;99.90;;;;;;5076183;28;20374;-54
2023/10/15 06:19:21;;;;;;;2.43;0.47;;;7.40;99.90;;;;;;5075447;28;20024;-52
2023/10/15 06:21:47;;;;;;;2.83;0.60;;;7.40;99.90;;;;;;5075975;28;20028;-54
2023/10/15 06:24:12;;;;;;;1.00;0.40;;;7.40;99.90;;;;;;5075769;28;20119;-56
2023/10/15 06:26:38;;;;;;;2.23;0.57;;;7.40;99.90;;;;;;5075328;28;20029;-52
2023/10/15 06:29:04;;;;;;;1.00;0.50;;;7.40;99.90;;;;;;5075619;28;20032;-52
2023/10/15 06:31:30;;;;;;;4.53;1.33;;;7.40;99.90;;;;;;5075577;28;20040;-55
2023/10/15 06:33:56;;;;;;;0.87;0.43;;;7.50;99.90;;;;;;5057022;28;20037;-50
2023/10/15 06:36:22;;;;;;;0.90;0.50;;;7.40;99.90;;;;;;5075664;28;20086;-52
2023/10/15 06:38:49;;;;;;;1.77;0.50;;;7.40;99.90;;;;;;5075271;28;20080;-55
2023/10/15 06:41:15;;;;;;;1.97;0.70;;;7.40;99.90;;;;;;5075443;28;20028;-51
2023/10/15 06:43:41;;;;;;;0.93;0.60;;;7.50;99.90;;;;;;5074854;28;20548;-54
2023/10/15 06:46:07;;;;;;;8.27;3.97;;;7.50;99.90;;;;;;5057390;28;20037;-56
2023/10/15 06:48:37;;;;;;;4.10;1.43;;;7.50;99.90;;;;;;5074443;28;20060;-55
2023/10/15 06:51:07;;;;;;;0.90;0.70;;;7.50;99.90;;;;;;5075448;28;20033;-56
2023/10/15 06:53:34;;;;;;;1.70;0.70;;;7.50;99.90;;;;;;5074851;28;20064;-54
2023/10/15 06:56:00;;;;;;;1.37;0.60;;;7.50;99.90;;;;;;5074836;28;20232;-55
2023/10/15 06:58:28;;;;;;;1.73;0.63;;;7.50;99.90;;;;;;5073938;28;20039;-56
2023/10/15 07:00:58;;;;;;;1.73;0.50;;;7.50;99.90;;;;;;5074769;28;20032;-51
2023/10/15 07:03:24;;;;;;;1.50;0.80;;;7.50;99.90;;;;;;5074204;28;20516;-54
2023/10/15 07:05:50;;;;;;;2.50;0.83;;;7.50;99.90;;;;;;5074340;28;20060;-53
2023/10/15 07:08:16;;;;;;;2.57;0.70;;;7.50;99.90;;;;;;5074567;28;20036;-56
2023/10/15 07:10:42;;;;;;;2.03;0.97;;;7.60;99.90;;;;;;5074839;28;20441;-53
2023/10/15 07:13:10;;;;;;;1.77;0.80;;;7.60;99.90;;;;;;5073987;28;20071;-55
2023/10/15 07:15:37;;;;;;;0.90;0.63;;;7.70;99.90;;;;;;5056345;28;20035;-54
2023/10/15 07:18:03;;;;;;;1.50;0.77;;;7.70;99.90;;;;;;5074280;28;20024;-56
2023/10/15 07:20:30;;;;;;;1.70;0.80;;;7.80;99.90;;;;;;5074146;28;20082;-51
2023/10/15 07:22:56;;;;;;;1.77;0.80;;;7.80;99.90;;;;;;5073688;28;20489;-55
2023/10/15 07:25:26;;;;;;;1.10;0.73;;;7.80;99.90;;;;;;5073856;28;20489;-54
2023/10/15 07:27:56;;;;;;;1.13;0.60;;;7.80;99.90;;;;;;5073743;28;20054;-54
2023/10/15 07:30:22;;;;;;;2.67;0.85;;;7.80;99.90;;;;;;5073416;28;20427;-55
2023/10/15 07:32:53;;;;;;;2.43;0.93;;;8.00;99.90;;;;;;5073755;28;20028;-52
2023/10/15 07:35:21;;;;;;;1.30;0.80;;;8.00;99.90;;;;;;5074599;28;20044;-56
2023/10/15 07:37:49;;;;;;;1.70;0.80;;;8.10;99.90;;;;;;5073899;28;20032;-52
2023/10/15 07:40:21;;;;;;;2.05;0.90;;;8.10;99.90;;;;;;5073781;28;20036;-53
2023/10/15 07:42:52;;;;;;;1.67;0.83;;;8.10;99.90;;;;;;5073636;28;20037;-55
2023/10/15 07:45:19;;;;;;;1.40;0.90;;;8.30;99.90;;;;;;5073516;28;20120;-55
2023/10/15 07:47:45;;;;;;;2.40;0.93;;;8.30;99.90;;;;;;5073714;28;20534;-54
2023/10/15 07:50:18;;;;;;;2.00;0.63;;;8.40;99.90;;;;;;5074250;28;20035;-55
2023/10/15 07:52:47;;;;;;;1.00;0.53;;;8.40;99.90;;;;;;5073717;28;20409;-53
2023/10/15 07:55:13;;;;;;;2.00;0.60;;;8.60;99.90;;;;;;5073645;28;20071;-54
2023/10/15 07:57:39;;;;;;;2.30;0.60;;;8.70;99.90;;;;;;5073725;28;20327;-55
2023/10/15 08:00:15;;;;;;;2.70;0.80;;;8.80;99.90;;;;;;5073455;28;20440;-55
2023/10/15 08:02:49;;;;;;;2.13;1.10;;;8.70;99.90;;;;;;5073582;28;20036;-52
2023/10/15 08:05:15;;;;;;;2.73;0.63;;;8.60;99.90;;;;;;5073316;28;20059;-55
2023/10/15 08:07:43;;;;;;;2.13;0.97;;;8.60;99.90;;;;;;5073356;28;20032;-53
2023/10/15 08:10:10;;;;;;;4.37;1.40;;;8.50;99.90;;;;;;5073234;28;20043;-52
2023/10/15 08:12:36;;;;;;;3.10;1.30;;;8.50;99.90;;;;;;5073454;28;20032;-53
2023/10/15 08:15:02;;;;;;;1.10;0.53;;;8.50;99.90;;;;;;5073342;28;20025;-54
2023/10/15 08:17:29;;;;;;;1.60;0.80;;;8.50;99.90;;;;;;5073766;28;20146;-55
2023/10/15 08:19:55;;;;;;;2.20;0.80;;;8.40;99.90;;;;;;5073168;28;20064;-52
2023/10/15 08:22:21;;;;;;;1.73;0.60;;;8.30;99.90;;;;;;5073562;28;20032;-54
2023/10/15 08:24:46;;;;;;;1.77;0.60;;;8.30;99.90;;;;;;5072778;28;20029;-50
2023/10/15 08:27:13;;;;;;;1.77;0.87;;;8.30;99.90;;;;;;5073128;28;20025;-54
2023/10/15 08:29:41;;;;;;;1.03;0.57;;;8.30;99.90;;;;;;5073245;28;20074;-52
2023/10/15 08:32:13;;;;;;;2.50;0.87;;;8.30;99.90;;;;;;5073342;28;20116;-54
2023/10/15 08:34:39;;;;;;;2.60;0.67;;;8.30;99.90;;;;;;5055272;28;20032;-54
2023/10/15 08:37:06;;;;;;;6.87;1.03;;;8.40;99.90;;;;;;5055519;28;20424;-54
2023/10/15 08:39:33;;;;;;;1.53;1.03;;;8.40;99.90;;;;;;5072707;28;20043;-55
2023/10/15 08:42:03;;;;;;;1.00;0.70;;;8.40;99.90;;;;;;5073202;28;20067;-54
2023/10/15 08:44:30;;;;;;;1.30;0.60;;;8.40;99.90;;;;;;5072843;28;20051;-55
2023/10/15 08:47:00;;;;;;;2.87;0.90;;;8.50;99.90;;;;;;5073038;28;20040;-55
2023/10/15 08:49:32;;;;;;;2.50;0.80;;;8.50;99.90;;;;;;5072910;28;20127;-55
2023/10/15 08:51:59;;;;;;;3.33;0.80;;;8.50;99.90;;;;;;5072665;28;20021;-56
2023/10/15 08:54:26;;;;;;;1.77;0.80;;;8.60;99.90;;;;;;5072242;28;20036;-55
2023/10/15 08:56:56;;;;;;;2.10;1.30;;;8.60;99.90;;;;;;5073053;28;20481;-52
2023/10/15 08:59:27;;;;;;;5.07;1.23;;;8.70;99.90;;;;;;5072840;28;20439;-55
2023/10/15 09:01:54;;;;;;;2.03;1.10;;;8.80;99.90;;;;;;5072743;28;20028;-54
2023/10/15 09:04:20;;;;;;;2.47;0.80;;;8.90;99.90;;;;;;5072552;28;20045;-55
2023/10/15 09:06:47;;;;;;;1.80;0.80;;;8.90;99.90;;;;;;5073056;28;20086;-54
2023/10/15 09:09:13;;;;;;;2.27;1.00;;;8.90;99.90;;;;;;5072472;28;20036;-54
2023/10/15 09:11:42;;;;;;;1.37;0.70;;;8.90;99.90;;;;;;5072524;28;20556;-51
2023/10/15 09:14:13;;;;;;;2.88;0.85;;;8.90;99.90;;;;;;5072938;28;20094;-54
2023/10/15 09:16:48;;;;;;;2.13;1.03;;;8.80;99.90;;;;;;5054825;28;20029;-55
2023/10/15 09:19:14;;;;;;;3.73;1.20;;;8.80;99.90;;;;;;5072743;28;20028;-55
2023/10/15 09:21:40;;;;;;;5.30;1.30;;;8.80;99.90;;;;;;5072909;28;20024;-53
2023/10/15 09:24:06;;;;;;;5.20;1.40;;;8.90;99.90;;;;;;5072293;28;20054;-52
2023/10/15 09:26:39;;;;;;;2.13;0.80;;;8.80;99.90;;;;;;5072125;28;20104;-50
2023/10/15 09:29:20;;;;;;;3.30;1.40;;;8.90;99.90;;;;;;5072462;28;20033;-50
2023/10/15 09:31:47;;;;;;;3.50;1.10;;;8.80;99.90;;;;;;5072385;28;20058;-51
2023/10/15 09:34:12;;;;;;;4.07;1.07;;;8.70;99.90;;;;;;5072467;28;20059;-54
2023/10/15 09:36:38;;;;;;;4.00;1.23;;;8.70;99.90;;;;;;5072739;28;20029;-51
2023/10/15 09:39:13;;;;;;;1.30;0.80;;;8.60;99.90;;;;;;5072197;28;20063;-55
2023/10/15 09:41:41;;;;;;;3.07;0.80;;;8.60;99.90;;;;;;5072381;28;20145;-54
2023/10/15 09:44:14;;;;;;;3.80;1.40;;;8.60;99.90;;;;;;5072245;28;20522;-53
2023/10/15 09:46:43;;;;;;;2.20;0.80;;;8.60;99.90;;;;;;5072468;28;20048;-53
2023/10/15 09:49:13;;;;;;;4.10;1.23;;;8.60;99.90;;;;;;5072429;28;20068;-54
2023/10/15 09:51:40;;;;;;;2.33;1.10;;;8.60;99.90;;;;;;5054301;28;20035;-54
2023/10/15 09:54:11;;;;;;;4.57;1.20;;;8.60;99.90;;;;;;5071834;28;20033;-53
2023/10/15 09:56:40;;;;;;;5.00;1.53;;;8.70;99.90;;;;;;5072236;28;20063;-51
2023/10/15 09:59:07;;;;;;;2.38;1.30;;;8.70;99.90;;;;;;5071934;28;20477;-54
2023/10/15 10:01:36;;;;;;;3.13;1.10;;;8.80;99.90;;;;;;5072214;28;20503;-55
2023/10/15 10:04:18;;;;;;;3.83;1.30;;;8.80;99.90;;;;;;5072961;28;20051;-55
2023/10/15 10:06:47;;;;;;;1.57;0.90;;;8.90;99.90;;;;;;5075885;28;20051;-53
2023/10/15 10:09:21;;;;;;;1.85;0.75;;;8.90;99.90;;;;;;5075316;28;20028;-55
2023/10/15 10:12:27;;;;;;;3.43;0.87;;;8.90;99.90;;;;;;5075663;28;20036;-54
2023/10/15 10:15:15;;;;;;;3.30;0.90;;;8.90;99.90;;;;;;5075030;28;20406;-53
2023/10/15 10:17:42;;;;;;;1.37;0.63;;;9.00;99.90;;;;;;5075627;28;20037;-55
2023/10/15 10:20:11;;;;;;;1.07;0.60;;;9.00;99.90;;;;;;5057645;28;20051;-52
2023/10/15 10:22:41;;;;;;;4.97;0.70;;;9.00;99.90;;;;;;5076168;28;20029;-54
2023/10/15 10:25:07;;;;;;;2.03;0.80;;;9.00;99.90;;;;;;5075099;28;20032;-51
2023/10/15 10:27:45;;;;;;;2.93;0.50;;;9.10;99.90;;;;;;5075102;28;20032;-52
2023/10/15 10:30:27;;;;;;;6.00;2.07;;;9.00;99.90;;;;;;5075840;28;20031;-55
2023/10/15 10:32:56;;;;;;;1.37;0.70;;;9.10;99.90;;;;;;5075230;28;20037;-54
2023/10/15 10:35:26;;;;;;;1.60;0.50;;;9.10;99.90;;;;;;5075208;28;20556;-54
2023/10/15 10:38:05;;;;;;;1.60;0.50;;;9.10;99.90;;;;;;5075387;28;20031;-55
2023/10/15 10:40:54;;;;;;;3.10;0.65;;;9.10;99.90;;;;;;5075403;28;20033;-54
2023/10/15 10:43:27;;;;;;;4.43;0.77;;;9.20;99.90;;;;;;5075365;28;20054;-52
2023/10/15 10:45:53;;;;;;;1.33;0.50;;;9.20;99.90;;;;;;5075571;28;20028;-52
2023/10/15 10:48:33;;;;;;;4.27;0.80;;;9.30;99.90;;;;;;5057229;28;20438;-53
2023/10/15 10:51:11;;;;;;;1.23;0.50;;;9.40;99.90;;;;;;5075407;28;20124;-50
2023/10/15 10:53:58;;;;;;;1.25;0.45;;;9.60;99.90;;;;;;5074626;28;20170;-54
2023/10/15 10:56:44;;;;;;;2.93;0.50;;;9.70;99.90;;;;;;5060528;28;20051;-52
2023/10/15 10:59:12;;;;;;;2.73;0.47;;;9.80;99.90;;;;;;5074645;28;20044;-50
2023/10/15 11:01:42;;;;;;;1.80;0.50;;;9.70;99.90;;;;;;5075065;28;20024;-52
2023/10/15 11:04:10;;;;;;;1.53;0.50;;;9.80;99.90;;;;;;5074740;28;20032;-52
2023/10/15 11:06:37;;;;;;;8.97;1.00;;;10.10;99.90;;;;;;5074710;28;20032;-55
2023/10/15 11:09:15;;;;;;;1.30;0.90;;;10.20;99.90;;;;;;5074213;28;20078;-53
2023/10/15 11:11:48;;;;;;;1.87;0.83;;;10.40;99.90;;;;;;5056837;28;20037;-53
2023/10/15 11:14:18;;;;;;;2.73;0.70;;;10.60;99.90;;;;;;5056407;28;20074;-53
2023/10/15 11:16:47;;;;;;;2.23;0.60;;;10.80;99.90;;;;;;5073593;28;20028;-53
2023/10/15 11:19:14;;;;;;;1.42;0.47;;;10.90;99.90;;;;;;5073946;28;20488;-53
2023/10/15 11:21:40;;;;;;;0.63;0.30;;;11.30;99.90;;;;;;5074567;28;20029;-55
2023/10/15 11:24:09;;;;;;;1.73;0.53;;;11.40;99.90;;;;;;5074459;28;20032;-54
2023/10/15 11:26:42;;;;;;;4.20;0.55;;;11.50;99.90;;;;;;5056011;28;20043;-54
2023/10/15 11:29:09;;;;;;;1.27;0.40;;;11.40;99.90;;;;;;5074088;28;20035;-54
2023/10/15 11:31:36;;;;;;;1.50;0.63;;;11.30;99.90;;;;;;5074348;28;20045;-52
2023/10/15 11:34:02;;;;;;;1.00;0.40;;;11.80;99.90;;;;;;5056175;28;20055;-55
2023/10/15 11:36:34;;;;;;;0.47;0.20;;;12.60;99.90;;;;;;5074482;28;20039;-53
2023/10/15 11:39:09;;;;;;;1.73;0.50;;;13.60;99.90;;;;;;5073549;28;20102;-55
2023/10/15 11:41:39;;;;;;;0.75;0.40;;;14.10;99.90;;;;;;5074442;28;20037;-52
2023/10/15 11:44:06;;;;;;;;;;;14.20;99.90;;;;;;5074212;28;20485;-53
2023/10/15 11:46:34;;;;;;;1.50;0.38;;;14.40;99.90;;;;;;5073499;28;19912;-55
2023/10/15 11:49:01;;;;;;;2.20;0.63;;;14.30;99.90;;;;;;5073436;28;20046;-54
2023/10/15 11:51:31;;;;;;;2.25;0.50;;;14.10;99.90;;;;;;5073684;28;20083;-53
2023/10/15 11:54:01;;;;;;;3.30;0.60;;;13.90;99.90;;;;;;5072980;28;20086;-53
2023/10/15 11:56:27;;;;;;;1.25;0.40;;;14.00;99.90;;;;;;5073343;28;20028;-53
2023/10/15 11:58:54;;;;;;;2.10;0.50;;;14.20;99.90;;;;;;5055304;28;20474;-51
2023/10/15 12:01:21;;;;;;;2.28;0.57;;;14.10;99.90;;;;;;5074263;28;20028;-52
2023/10/15 12:03:50;;;;;;;1.20;0.50;;;13.50;99.90;;;;;;5073921;28;20028;-54
2023/10/15 12:06:19;;;;;;;;;;;13.00;99.90;;;;;;5055900;28;20135;-54
2023/10/15 12:08:44;;;;;;;0.95;0.40;;;12.50;99.90;;;;;;5073315;28;19914;-51
2023/10/15 12:11:12;;;;;;;0.88;0.40;;;12.30;99.90;;;;;;5055542;28;20135;-53
2023/10/15 12:13:40;;;;;;;0.93;0.43;;;12.40;99.90;;;;;;5073297;28;20040;-52
2023/10/15 12:16:05;;;;;;;2.30;0.70;;;12.60;99.90;;;;;;5073852;28;20549;-53
2023/10/15 12:18:31;;;;;;;3.35;0.40;;;12.70;99.90;;;;;;5073282;28;20095;-54
2023/10/15 12:20:59;;;;;;;0.70;0.30;;;13.20;99.90;;;;;;5073419;28;20036;-54
2023/10/15 12:23:27;;;;;;;1.17;0.40;;;13.60;99.90;;;;;;5072971;28;20515;-52
2023/10/15 12:25:52;;;;;;;1.45;0.60;;;13.70;99.90;;;;;;5072911;28;20102;-54
2023/10/15 12:28:18;;;;;;;0.75;0.40;;;13.50;99.90;;;;;;5073324;28;20451;-54
2023/10/15 12:30:44;;;;;;;3.28;0.60;;;13.10;99.90;;;;;;5054960;28;20085;-54
2023/10/15 12:33:09;;;;;;;0.70;0.38;;;13.00;99.90;;;;;;5072933;28;20038;-53
2023/10/15 12:35:35;;;;;;;3.25;0.68;;;12.80;99.90;;;;;;5072846;28;20147;-50
2023/10/15 12:38:05;;;;;;;0.65;0.28;;;12.50;99.90;;;;;;5072968;28;20020;-51
2023/10/15 12:40:31;;;;;;;3.65;0.40;;;12.30;99.90;;;;;;5072718;28;20029;-54
2023/10/15 12:43:08;;;;;;;2.20;0.47;;;12.20;99.90;;;;;;5072754;28;20028;-52
2023/10/15 12:45:36;;;;;;;1.50;0.50;;;11.90;99.90;;;;;;5072764;28;20044;-55
2023/10/15 12:48:02;;;;;;;1.27;0.30;;;11.60;99.90;;;;;;5073465;28;20311;-54
2023/10/15 12:50:31;;;;;;;4.35;0.50;;;11.30;99.90;;;;;;5072646;28;20056;-54
2023/10/15 12:52:58;;;;;;;2.10;0.70;;;11.20;99.90;;;;;;5072874;28;20504;-51
2023/10/15 12:55:24;;;;;;;1.45;0.63;;;11.30;99.90;;;;;;5054826;28;20085;-53
2023/10/15 12:57:52;;;;;;;1.92;0.68;;;11.30;99.90;;;;;;5072920;28;20040;-55
2023/10/15 13:00:18;;;;;;;1.65;0.40;;;11.70;99.90;;;;;;5072581;28;20024;-54
2023/10/15 13:02:51;;;;;;;2.28;0.52;;;12.20;99.90;;;;;;5073335;28;20052;-55
2023/10/15 13:05:23;;;;;;;1.35;0.30;;;12.80;99.90;;;;;;5073542;28;20507;-54
2023/10/15 13:07:50;;;;;;;1.40;0.38;;;13.30;99.90;;;;;;5073146;28;20524;-53
2023/10/15 13:10:17;;;;;;;1.48;0.50;;;13.20;99.90;;;;;;5072924;28;20083;-52
2023/10/15 13:12:47;;;;;;;3.58;0.60;;;12.90;99.90;;;;;;5072643;28;20037;-55
2023/10/15 13:15:17;;;;;;;1.95;0.47;;;12.50;99.90;;;;;;5072852;28;20040;-54
2023/10/15 13:17:44;;;;;;;2.50;0.63;;;12.20;99.90;;;;;;5072541;28;20037;-55
2023/10/15 13:20:13;;;;;;;2.55;0.60;;;12.00;99.90;;;;;;5072312;28;20036;-55
2023/10/15 13:22:40;;;;;;;0.90;0.32;;;11.80;99.90;;;;;;5072714;28;20408;-54